Latest Weather Observations for Terrey Hills

IDN60801

Issued at 7:32 pm EDT Thursday 30 March 2017 (issued every 30 minutes, with the page automatically refreshed every 10 minutes)

About weather observations | Map of weather stations | Latest weather observations for NSW | Other Formats
Station Details ID: 066059 Name: TERREY HILLS AWS Lat: -33.69 Lon: 151.23 Height: 199.0 m
Data from the previous 72 hours. | See also: Recent months at Terrey Hills
Date/Time
EDT
Temp
°C
App
Temp
°C
Dew
Point
°C
Rel
Hum
%
Delta-T
°C
Wind Press
QNH
hPa
Press
MSL
hPa
Rain since
9am
mm
Dir  Spd
km/h
Gust
km/h
Spd
kts
Gust
kts
30/07:30pm - - - - - SW 20 32 11 17 - - 28.6
30/07:00pm - - - - - SSW 22 35 12 19 - - 27.2
30/06:30pm 15.8 14.1 15.8 100 0.0 SSW 19 33 10 18 - - 26.2
30/06:00pm - - - - - SSW 20 33 11 18 - - 25.2
30/05:30pm - - - - - SW 22 37 12 20 - - 24.2
30/05:00pm - - - - - S 17 30 9 16 - - 21.6
30/04:30pm - - - - - S 17 33 9 18 - - 20.8
30/04:00pm - - - - - S 20 35 11 19 - - 19.8
30/03:30pm - - - - - SSW 15 35 8 19 - - 19.8
30/03:00pm - - - - - S 15 28 8 15 - - 18.0
30/02:30pm - - - - - SSE 19 35 10 19 - - 17.4
30/02:00pm - - - - - SSE 9 19 5 10 - - 16.4
30/01:30pm - - - - - SSW 13 24 7 13 - - 12.4
30/01:00pm - - - - - S 13 20 7 11 - - 10.4
30/12:30pm 20.1 20.6 20.1 100 0.0 SSW 17 24 9 13 - - 9.8
30/12:00pm 20.6 22.5 20.6 100 0.0 S 11 20 6 11 - - 8.4
30/11:30am 21.7 25.5 21.7 100 0.0 WSW 4 9 2 5 - - 3.0
30/11:00am 22.3 24.7 22.3 100 0.0 SW 13 24 7 13 - - 1.0
30/10:30am 23.3 25.8 21.0 87 1.5 SW 9 17 5 9 - - 0.4
30/10:00am 22.7 25.7 21.3 92 0.9 NNW 7 13 4 7 - - 0.4
30/09:30am 22.6 25.8 21.6 94 0.7 WNW 7 15 4 8 - - 0.4
30/09:00am 24.1 27.2 21.4 85 1.8 NNW 7 13 4 7 - - 0.0
30/08:30am 24.9 27.8 21.0 79 2.6 N 7 11 4 6 - - 0.0
30/08:00am 25.0 28.0 21.3 80 2.5 NNW 7 11 4 6 - - 0.0
30/07:30am 25.5 27.4 20.5 74 3.3 N 11 15 6 8 - - 0.0
30/07:00am 25.2 28.2 20.9 77 2.8 NNW 6 7 3 4 - - 0.0
30/06:30am 26.0 28.2 20.3 71 3.7 N 9 15 5 8 - - 0.0
30/06:00am 25.9 28.2 20.7 73 3.4 NNW 9 15 5 8 - - 0.0
30/05:30am 25.9 28.4 21.1 75 3.2 NNW 9 15 5 8 - - 0.0
30/05:00am 25.6 28.8 21.7 79 2.6 NNW 7 11 4 6 - - 0.0
30/04:30am 25.0 28.6 22.1 84 2.0 NW 6 9 3 5 - - 0.0
30/04:00am 25.2 29.3 22.9 87 1.6 NW 6 11 3 6 - - 0.0
30/03:30am 25.3 29.5 23.2 88 1.4 NW 6 9 3 5 - - 0.0
30/03:00am 25.1 29.5 23.5 91 1.1 NW 6 11 3 6 - - 0.0
30/02:30am 26.1 30.5 23.8 87 1.6 NNW 7 13 4 7 - - 0.0
30/02:00am 26.0 30.1 23.9 88 1.5 NNW 9 17 5 9 - - 0.0
30/01:30am 26.1 30.2 24.0 88 1.5 NNW 9 13 5 7 - - 0.0
30/01:00am 26.5 30.4 24.2 87 1.6 N 11 15 6 8 - - 0.0
30/12:30am 27.2 31.4 24.1 83 2.2 N 9 15 5 8 - - 0.0
30/12:00am 27.3 31.3 24.4 84 2.0 N 11 17 6 9 - - 0.0
 
Date/Time
EDT
Temp
°C
App
Temp
°C
Dew
Point
°C
Rel
Hum
%
Delta-T
°C
Wind Press
QNH
hPa
Press
MSL
hPa
Rain since
9am
mm
Dir  Spd
km/h
Gust
km/h
Spd
kts
Gust
kts
29/11:30pm 27.1 31.4 24.2 84 2.0 N 9 13 5 7 - - 0.0
29/11:00pm 27.2 31.1 24.3 84 2.0 N 11 15 6 8 - - 0.0
29/10:30pm 27.3 31.6 24.2 83 2.2 N 9 15 5 8 - - 0.0
29/10:00pm 27.7 31.9 24.1 81 2.5 N 9 15 5 8 - - 0.0
29/09:30pm 27.6 31.6 24.4 83 2.2 N 11 15 6 8 - - 0.0
29/09:00pm 27.5 31.6 24.6 84 2.0 N 11 17 6 9 - - 0.0
29/08:30pm 27.4 31.6 24.7 85 1.9 N 11 15 6 8 - - 0.0
29/08:00pm 27.4 31.4 25.0 87 1.7 N 13 17 7 9 - - 0.0
29/07:30pm 27.5 32.1 25.3 88 1.6 N 11 17 6 9 - - 0.0
29/07:00pm 25.0 30.5 24.7 98 0.2 ENE 4 6 2 3 - - 0.0
29/06:30pm 26.0 31.2 24.8 93 0.8 E 6 6 3 3 - - 0.0
29/06:00pm 27.3 33.1 25.1 88 1.5 NE 4 7 2 4 - - 0.0
29/05:30pm 27.5 32.8 24.9 86 1.8 NE 6 11 3 6 - - 0.0
29/05:00pm 28.3 34.3 25.5 85 2.0 ENE 4 7 2 4 - - 0.0
29/04:30pm 28.3 33.2 25.3 84 2.1 ENE 9 13 5 7 - - 0.0
29/04:00pm 28.8 34.4 25.4 82 2.4 NE 6 13 3 7 - - 0.0
29/03:30pm 29.3 35.0 25.9 82 2.4 NNE 7 13 4 7 - - 0.0
29/03:00pm 29.6 35.2 25.8 80 2.7 NNE 7 15 4 8 - - 0.0
29/02:30pm 29.9 35.0 25.6 78 3.1 NNE 9 20 5 11 - - 0.0
29/02:00pm 29.6 34.4 25.1 77 3.2 N 9 19 5 10 - - 0.0
29/01:30pm 28.3 32.4 23.9 77 3.1 N 9 15 5 8 - - 0.0
29/01:00pm 27.5 31.6 23.9 81 2.5 N 9 19 5 10 - - 0.0
29/12:30pm 26.6 30.8 24.1 86 1.7 N 9 17 5 9 - - 0.0
29/12:00pm 25.2 28.6 23.3 89 1.3 N 11 19 6 10 - - 0.0
29/11:30am 23.9 26.3 22.9 94 0.7 N 15 20 8 11 - - 0.0
29/11:00am 23.6 27.0 23.3 98 0.2 N 11 19 6 10 - - 0.0
29/10:30am 22.5 25.8 22.5 100 0.0 N 9 15 5 8 - - 0.0
29/10:00am 21.9 25.4 21.9 100 0.0 N 6 9 3 5 - - 0.0
29/09:30am 21.2 24.2 21.2 100 0.0 NNW 7 11 4 6 - - 0.0
29/09:00am 21.0 24.8 21.0 100 0.0 NW 2 6 1 3 - - 0.0
29/08:30am 20.7 24.0 20.7 100 0.0 NNW 4 7 2 4 - - 0.0
29/08:00am 20.5 23.7 20.5 100 0.0 N 4 6 2 3 - - 0.0
29/07:30am 20.3 23.4 20.3 100 0.0 NNW 4 7 2 4 - - 0.0
29/07:00am 20.2 23.3 20.2 100 0.0 NNW 4 6 2 3 - - 0.0
29/06:30am 20.2 23.3 20.2 100 0.0 NNW 4 6 2 3 - - 0.0
29/06:00am 20.3 24.2 20.3 100 0.0 CALM 0 2 0 1 - - 0.0
29/05:30am 20.3 24.2 20.3 100 0.0 CALM 0 0 0 0 - - 0.0
29/05:00am 20.2 24.0 20.2 100 0.0 CALM 0 0 0 0 - - 0.0
29/04:30am 20.1 23.5 20.1 100 0.0 W 2 4 1 2 - - 0.0
29/04:00am 20.1 23.1 20.1 100 0.0 WNW 4 4 2 2 - - 0.0
29/03:30am 20.1 23.1 20.1 100 0.0 WNW 4 6 2 3 - - 0.0
29/03:00am 20.1 23.1 20.1 100 0.0 WNW 4 6 2 3 - - 0.0
29/02:30am 20.1 23.1 20.1 100 0.0 W 4 6 2 3 - - 0.0
29/02:00am 20.1 22.7 20.1 100 0.0 WNW 6 6 3 3 - - 0.0
29/01:30am 20.1 23.1 20.1 100 0.0 WNW 4 6 2 3 - - 0.0
29/01:00am 20.1 22.7 20.1 100 0.0 W 6 7 3 4 - - 0.0
29/12:30am 20.1 22.7 20.1 100 0.0 WNW 6 7 3 4 - - 0.0
29/12:00am 20.2 22.9 20.2 100 0.0 W 6 6 3 3 - - 0.0
 
Date/Time
EDT
Temp
°C
App
Temp
°C
Dew
Point
°C
Rel
Hum
%
Delta-T
°C
Wind Press
QNH
hPa
Press
MSL
hPa
Rain since
9am
mm
Dir  Spd
km/h
Gust
km/h
Spd
kts
Gust
kts
28/11:30pm 20.3 23.4 20.3 100 0.0 W 4 6 2 3 - - 0.0
28/11:00pm 20.3 23.8 20.3 100 0.0 WSW 2 4 1 2 - - 0.0
28/10:30pm 20.2 23.3 20.2 100 0.0 WSW 4 6 2 3 - - 0.0
28/10:00pm 20.1 23.1 20.1 100 0.0 W 4 6 2 3 - - 0.0
28/09:30pm 20.1 22.7 20.1 100 0.0 W 6 6 3 3 - - 0.0
28/09:00pm 20.4 23.6 20.4 100 0.0 SW 4 6 2 3 - - 0.0
28/08:30pm 20.3 23.4 20.3 100 0.0 SSW 4 6 2 3 - - 0.0
28/08:00pm 20.3 23.4 20.3 100 0.0 SSW 4 6 2 3 - - 0.0
28/07:30pm 20.3 23.0 20.3 100 0.0 SSW 6 7 3 4 - - 0.0
28/07:00pm 20.4 23.2 20.4 100 0.0 SSW 6 9 3 5 - - 0.0
28/06:30pm 20.4 23.0 20.4 100 0.0 S 7 13 4 7 - - 0.0
28/06:00pm 20.6 23.8 20.6 100 0.0 S 4 6 2 3 - - 0.0
28/05:30pm 20.8 23.7 20.6 99 0.1 SSE 6 9 3 5 - - 0.0
28/05:00pm 21.0 23.7 20.3 96 0.5 S 6 9 3 5 - - 0.0
28/04:30pm 21.1 23.7 20.1 94 0.6 S 6 13 3 7 - - 0.0
28/04:00pm 21.5 24.3 20.5 94 0.7 SSE 6 9 3 5 - - 0.0
28/03:30pm 22.1 25.2 21.1 94 0.7 S 6 9 3 5 - - 0.0
28/03:00pm 21.9 24.5 20.5 92 0.9 S 7 13 4 7 - - 0.0
28/02:30pm 21.7 24.2 20.3 92 0.9 SE 7 11 4 6 - - 0.0
28/02:00pm 21.9 24.6 20.7 93 0.8 SSE 7 13 4 7 - - 0.0
28/01:30pm 22.0 24.8 20.8 93 0.8 SSW 7 13 4 7 - - 0.0
28/01:00pm 21.9 25.4 21.1 95 0.5 SSE 4 7 2 4 - - 0.0
28/12:30pm 21.6 24.5 20.6 94 0.7 SW 6 11 3 6 - - 0.0
28/12:00pm 21.4 24.1 20.7 96 0.5 SW 7 11 4 6 - - 0.0
28/11:30am 21.1 23.7 20.4 96 0.5 SSW 7 11 4 6 - - 0.0
28/11:00am 21.1 23.4 20.6 97 0.3 SSW 9 13 5 7 - - 0.0
28/10:30am 20.8 23.4 20.5 98 0.2 SW 7 11 4 6 - - 0.0
28/10:00am 20.2 21.8 20.0 99 0.1 SSW 11 17 6 9 - - 0.0
28/09:30am 20.1 22.2 20.1 100 0.0 SSW 9 20 5 11 - - 0.0
28/09:00am 19.9 21.9 19.9 100 0.0 SSW 9 20 5 11 - - 0.0
28/08:30am 19.7 21.2 19.7 100 0.0 SSW 11 24 6 13 - - 0.0
28/08:00am 19.6 21.0 19.6 100 0.0 S 11 20 6 11 - - 0.0
28/07:30am 19.5 20.5 19.5 100 0.0 S 13 20 7 11 - - 0.0
28/07:00am 19.5 21.3 19.5 100 0.0 S 9 22 5 12 - - 0.0
28/06:30am 19.6 20.7 19.6 100 0.0 S 13 22 7 12 - - 0.0
28/06:00am 20.0 21.6 20.0 100 0.0 S 11 20 6 11 - - 0.0
28/05:30am 20.3 22.1 20.3 100 0.0 S 11 24 6 13 - - 0.0
28/05:00am 20.7 22.3 20.7 100 0.0 S 13 20 7 11 - - 0.0
28/04:30am 20.7 23.0 20.7 100 0.0 S 9 17 5 9 - - 0.0
28/04:00am 21.1 22.5 20.4 96 0.5 SSW 13 24 7 13 - - 0.0
28/03:30am 21.2 22.7 19.8 92 0.9 WNW 11 13 6 7 - - 0.0
28/03:00am 20.9 23.0 20.1 95 0.5 WNW 9 13 5 7 - - 0.0
28/02:30am 21.0 23.2 20.5 97 0.3 WNW 9 13 5 7 - - 0.0
28/02:00am 20.5 23.3 20.5 100 0.0 WNW 6 9 3 5 - - 0.0
28/01:30am 20.5 23.1 20.5 100 0.0 WNW 7 9 4 5 - - 0.0
28/01:00am 20.9 24.5 20.6 98 0.2 SSW 2 7 1 4 - - 0.0
28/12:30am 21.7 24.1 20.9 95 0.5 NNW 9 15 5 8 - - 0.0
28/12:00am 21.4 23.7 21.4 100 0.0 N 11 17 6 9 - - 0.0
 
Date/Time
EDT
Temp
°C
App
Temp
°C
Dew
Point
°C
Rel
Hum
%
Delta-T
°C
Wind Press
QNH
hPa
Press
MSL
hPa
Rain since
9am
mm
Dir  Spd
km/h
Gust
km/h
Spd
kts
Gust
kts
27/11:30pm 21.4 24.1 21.4 100 0.0 N 9 15 5 8 - - 0.0
27/11:00pm 21.6 23.6 21.6 100 0.0 N 13 20 7 11 - - 0.0
27/10:30pm 21.4 23.7 21.4 100 0.0 N 11 17 6 9 - - 0.0
27/10:00pm 21.3 23.2 21.3 100 0.0 N 13 20 7 11 - - 0.0
27/09:30pm 21.4 23.3 21.4 100 0.0 NNE 13 22 7 12 - - 0.0
27/09:00pm - - - - - NNE 13 20 7 11 - - 0.0
27/08:30pm 21.4 23.3 21.4 100 0.0 NNE 13 22 7 12 - - 0.0
27/08:00pm 21.5 23.3 21.2 98 0.2 NNE 13 20 7 11 - - 0.0

Other Formats:

Comma delimited format used in spreadsheet applications
http://www.bom.gov.au/fwo/IDN60801/IDN60801.94759.axf

JavaScript Object Notation format (JSON) in row-major order
http://www.bom.gov.au/fwo/IDN60801/IDN60801.94759.json